Time;durP1;ratioP1;P1;durP2;ratioP2;P2;SDS_P1;SDS_P2;PMS_P1;PMS_P2;Temp;Humidity;BMP_temperature;BMP_pressure;BME280_temperature;BME280_humidity;BME280_pressure;Samples;Min_cycle;Max_cycle;Signal;HPM_P1;HPM_P2
2022/03/30 00:00:44;;;;;;;;;12.50;10.25;;;;;20.79;35.52;99988.00;4974077;28;45539;-58
2022/03/30 00:03:09;;;;;;;;;11.50;10.75;;;;;20.78;35.87;99986.34;4974868;28;45415;-58
2022/03/30 00:05:34;;;;;;;;;14.25;11.25;;;;;20.79;35.48;99988.84;4973776;28;45302;-58
2022/03/30 00:08:00;;;;;;;;;14.50;12.25;;;;;20.79;35.59;99982.72;4975008;28;45369;-58
2022/03/30 00:10:25;;;;;;;;;11.25;10.75;;;;;20.78;35.80;99986.34;4975765;28;45596;-59
2022/03/30 00:12:51;;;;;;;;;12.50;11.25;;;;;20.78;35.42;99970.53;4975115;28;45351;-59
2022/03/30 00:15:17;;;;;;;;;11.75;11.00;;;;;20.77;35.34;99979.38;4973688;28;45950;-58
2022/03/30 00:17:42;;;;;;;;;15.25;14.25;;;;;20.78;35.68;99973.16;4974697;28;45345;-58
2022/03/30 00:20:09;;;;;;;;;14.50;12.00;;;;;20.78;35.80;99967.91;4975178;28;45458;-58
2022/03/30 00:22:34;;;;;;;;;12.75;11.75;;;;;20.77;35.31;99968.84;4974863;28;45283;-58
2022/03/30 00:24:59;;;;;;;;;12.50;11.00;;;;;20.77;35.84;99971.47;4975070;28;45227;-58
2022/03/30 00:27:25;;;;;;;;;14.75;13.25;;;;;20.77;35.24;99963.59;4975163;28;45242;-58
2022/03/30 00:29:50;;;;;;;;;15.00;12.50;;;;;20.76;35.61;99970.63;4975252;28;45279;-58
2022/03/30 00:32:16;;;;;;;;;17.75;12.50;;;;;20.77;35.86;99968.84;4974844;28;46597;-59
2022/03/30 00:34:41;;;;;;;;;15.75;12.75;;;;;20.77;35.88;99966.22;4974885;28;45446;-58
2022/03/30 00:37:08;;;;;;;;;14.50;12.25;;;;;20.77;35.84;99968.84;4974945;28;45390;-58
2022/03/30 00:39:33;;;;;;;;;17.00;14.75;;;;;20.76;35.62;99961.91;4975049;28;45456;-59
2022/03/30 00:41:59;;;;;;;;;13.25;12.00;;;;;20.77;35.90;99963.59;4974490;28;45925;-59
2022/03/30 00:44:24;;;;;;;;;19.25;15.00;;;;;20.77;35.69;99963.59;4974960;28;45354;-59
2022/03/30 00:46:50;;;;;;;;;15.75;15.00;;;;;20.76;35.93;99956.63;4974687;28;45406;-58
2022/03/30 00:49:15;;;;;;;;;14.25;12.25;;;;;20.76;35.97;99957.47;4974632;28;45286;-57
2022/03/30 00:51:41;;;;;;;;;12.75;12.25;;;;;20.76;35.52;99948.72;4973348;28;46302;-59
2022/03/30 00:54:07;;;;;;;;;15.00;14.25;;;;;20.75;35.45;99944.41;4974743;28;45369;-60
2022/03/30 00:56:35;;;;;;;;;15.75;11.25;;;;;20.76;35.37;99941.66;4974515;28;45383;-60
2022/03/30 00:59:01;;;;;;;;;18.75;14.00;;;;;20.76;36.01;99940.81;4974714;28;45474;-59
2022/03/30 01:01:28;;;;;;;;;12.75;12.25;;;;;20.76;36.02;99936.38;4974464;28;46015;-57
2022/03/30 01:03:53;;;;;;;;;14.25;12.50;;;;;20.74;36.07;99929.53;4974801;28;45362;-59
2022/03/30 01:06:18;;;;;;;;;14.00;12.50;;;;;20.76;35.67;99927.66;4974426;28;45425;-58
2022/03/30 01:08:45;;;;;;;;;17.00;15.25;;;;;20.74;35.82;99924.25;4974486;28;45474;-60
2022/03/30 01:11:11;;;;;;;;;15.00;12.25;;;;;20.74;36.06;99921.63;4974223;28;47072;-60
2022/03/30 01:13:38;;;;;;;;;16.25;13.25;;;;;20.74;35.54;99916.34;4974226;28;45282;-57
2022/03/30 01:16:04;;;;;;;;;16.50;14.25;;;;;20.74;35.45;99911.09;4974360;28;45239;-58
2022/03/30 01:18:29;;;;;;;;;13.00;11.25;;;;;20.73;35.60;99904.13;4974174;28;45226;-59
2022/03/30 01:20:55;;;;;;;;;17.50;15.25;;;;;20.74;35.50;99911.09;4974226;28;46400;-59
2022/03/30 01:23:20;;;;;;;;;16.25;13.00;;;;;20.74;36.05;99905.81;4974073;28;45378;-58
2022/03/30 01:25:45;;;;;;;;;16.00;12.00;;;;;20.74;35.72;99909.31;4974122;28;45426;-58
2022/03/30 01:28:11;;;;;;;;;18.25;13.25;;;;;20.74;35.88;99905.81;4974322;28;45244;-59
2022/03/30 01:33:20;;;;;;;;;15.00;13.50;;;;;20.74;35.66;99898.78;4974032;28;45249;-59
2022/03/30 01:35:46;;;;;;;;;16.25;14.50;;;;;20.73;35.61;99893.59;4974085;28;45223;-58
2022/03/30 01:38:11;;;;;;;;;15.00;13.00;;;;;20.73;35.63;99893.59;4973253;28;46040;-58
2022/03/30 01:40:38;;;;;;;;;17.25;14.50;;;;;20.73;36.01;99889.16;4973876;28;45414;-59
2022/03/30 01:43:03;;;;;;;;;12.75;11.25;;;;;20.73;35.86;99885.72;4973785;28;45362;-60
2022/03/30 01:45:29;;;;;;;;;15.00;13.25;;;;;20.73;35.69;99894.44;4974273;28;45369;-60
2022/03/30 01:47:58;;;;;;;;;13.50;11.50;;;;;20.73;35.81;99888.34;4974076;28;45529;-59
2022/03/30 01:50:25;;;;;;;;;15.00;11.50;;;;;20.72;35.75;99878.75;4973720;28;45712;-58
2022/03/30 01:52:52;;;;;;;;;13.75;12.00;;;;;20.74;36.03;99884.75;4972506;28;45177;-59
2022/03/30 01:55:18;;;;;;;;;15.50;13.75;;;;;20.72;35.62;99884.03;4973717;28;45327;-58
2022/03/30 01:57:45;;;;;;;;;18.00;14.25;;;;;20.72;35.46;99876.13;4973825;28;45584;-58
2022/03/30 02:00:14;;;;;;;;;10.75;7.75;;;;;20.72;35.99;99881.38;4973565;28;45545;-59
2022/03/30 02:02:40;;;;;;;;;15.50;14.25;;;;;20.73;36.17;99877.81;4973795;28;45803;-59
2022/03/30 02:05:09;;;;;;;;;14.50;14.50;;;;;20.73;36.16;99864.66;4976754;28;45249;-58
2022/03/30 02:07:36;;;;;;;;;8.75;8.75;;;;;20.72;36.28;99865.59;4976662;28;45384;-57
2022/03/30 02:10:03;;;;;;;;;11.75;11.75;;;;;20.72;36.30;99860.31;4976551;28;46165;-59
2022/03/30 02:12:28;;;;;;;;;15.00;14.00;;;;;20.72;36.12;99863.81;4976667;28;45968;-57
2022/03/30 02:14:53;;;;;;;;;14.00;13.00;;;;;20.72;36.04;99865.59;4976659;28;45252;-59
2022/03/30 02:17:20;;;;;;;;;14.50;13.50;;;;;20.72;35.67;99857.69;4976648;28;45616;-58
2022/03/30 02:19:45;;;;;;;;;13.75;13.25;;;;;20.70;36.03;99858.63;4976212;28;46250;-58
2022/03/30 02:22:11;;;;;;;;;14.25;13.75;;;;;20.72;35.86;99855.06;4976382;28;45251;-59
2022/03/30 02:24:37;;;;;;;;;13.25;12.25;;;;;20.71;36.11;99854.22;4976424;28;45833;-58
2022/03/30 02:27:03;;;;;;;;;14.25;14.25;;;;;20.73;35.99;99846.22;4976735;28;45809;-58
2022/03/30 02:29:28;;;;;;;;;15.50;13.50;;;;;20.72;36.07;99845.38;4976469;28;48029;-58
2022/03/30 02:31:55;;;;;;;;;14.75;13.00;;;;;20.72;36.00;99841.91;4976110;28;45265;-58
2022/03/30 02:34:21;;;;;;;;;11.75;11.75;;;;;20.72;36.17;99834.00;4976375;28;45557;-58
2022/03/30 02:36:48;;;;;;;;;14.25;13.00;;;;;20.72;36.16;99839.25;4976397;28;45582;-59
2022/03/30 02:39:14;;;;;;;;;16.00;13.75;;;;;20.72;36.22;99839.25;4976144;28;45908;-58
2022/03/30 02:41:39;;;;;;;;;15.00;14.25;;;;;20.71;36.16;99835.81;4976009;28;45948;-58
2022/03/30 02:44:05;;;;;;;;;14.00;12.75;;;;;20.72;36.41;99834.84;4976259;28;45280;-57
2022/03/30 02:46:30;;;;;;;;;13.00;12.00;;;;;20.70;36.30;99829.69;4976619;28;45185;-59
2022/03/30 02:48:56;;;;;;;;;14.50;12.25;;;;;20.72;36.00;99826.09;4975975;28;45493;-59
2022/03/30 02:51:21;;;;;;;;;12.50;12.00;;;;;20.70;35.95;99821.78;4975973;28;45364;-58
2022/03/30 02:53:46;;;;;;;;;18.75;15.50;;;;;20.70;36.33;99829.69;4974798;28;45340;-58
2022/03/30 02:56:12;;;;;;;;;14.75;12.25;;;;;20.72;36.28;99826.09;4976087;28;45558;-58
2022/03/30 02:58:37;;;;;;;;;12.50;11.50;;;;;20.70;36.05;99820.94;4975837;28;45999;-58
2022/03/30 03:01:03;;;;;;;;;15.50;13.50;;;;;20.70;36.40;99821.78;4976248;28;45355;-60
2022/03/30 03:03:28;;;;;;;;;14.50;12.00;;;;;20.69;35.90;99825.34;4976034;28;45417;-58
2022/03/30 03:05:53;;;;;;;;;14.75;13.75;;;;;20.70;36.00;99820.94;4976142;28;45343;-58
2022/03/30 03:08:19;;;;;;;;;15.00;12.50;;;;;20.70;36.02;99819.16;4975702;28;45927;-58
2022/03/30 03:10:46;;;;;;;;;15.25;12.50;;;;;20.70;35.94;99828.84;4974374;28;45517;-59
2022/03/30 03:13:13;;;;;;;;;14.00;12.50;;;;;20.70;35.91;99827.03;4976146;28;45411;-59
2022/03/30 03:15:39;;;;;;;;;16.50;13.75;;;;;20.70;36.08;99826.22;4975239;28;45523;-59
2022/03/30 03:18:05;;;;;;;;;15.25;14.25;;;;;20.69;36.82;99825.34;4975698;28;46114;-57
2022/03/30 03:20:32;;;;;;;;;14.25;13.25;;;;;20.70;36.21;99824.41;4975913;28;45457;-59
2022/03/30 03:22:58;;;;;;;;;12.75;12.75;;;;;20.70;35.97;99826.22;4975735;28;45509;-59
2022/03/30 03:25:27;;;;;;;;;15.00;14.00;;;;;20.68;36.25;99818.41;4975863;28;45444;-58
2022/03/30 03:27:53;;;;;;;;;15.25;10.25;;;;;20.68;36.28;99810.50;4975321;28;46966;-59
2022/03/30 03:30:18;;;;;;;;;13.00;12.75;;;;;20.68;35.98;99807.88;4974137;28;45348;-59
2022/03/30 03:32:44;;;;;;;;;13.75;12.00;;;;;20.69;36.78;99809.56;4975499;28;45426;-59
2022/03/30 03:35:09;;;;;;;;;15.25;13.25;;;;;20.68;36.10;99802.59;4975691;28;45438;-58
2022/03/30 03:37:36;;;;;;;;;15.25;13.75;;;;;20.68;36.28;99804.41;4975593;28;46190;-59
2022/03/30 03:40:02;;;;;;;;;14.50;11.50;;;;;20.69;36.48;99801.66;4974473;28;45387;-59
2022/03/30 03:42:27;;;;;;;;;12.75;12.75;;;;;20.67;36.21;99800.94;4975481;28;45457;-59
2022/03/30 03:44:53;;;;;;;;;15.00;13.75;;;;;20.67;36.83;99794.84;4975592;28;45443;-59
2022/03/30 03:47:19;;;;;;;;;15.25;13.75;;;;;20.68;36.28;99802.59;4973986;28;48355;-59
2022/03/30 03:49:44;;;;;;;;;15.00;13.25;;;;;20.69;36.53;99799.03;4975135;28;45540;-58
2022/03/30 03:52:09;;;;;;;;;15.00;14.00;;;;;20.68;36.67;99799.97;4975467;28;45339;-59
2022/03/30 03:54:35;;;;;;;;;16.75;14.25;;;;;20.67;36.62;99794.84;4975766;28;45322;-59
2022/03/30 03:57:00;;;;;;;;;15.25;14.50;;;;;20.68;36.16;99802.59;4975165;28;45371;-59
2022/03/30 03:59:26;;;;;;;;;14.25;14.25;;;;;20.66;36.43;99799.28;4975224;28;45361;-58
2022/03/30 04:01:52;;;;;;;;;16.25;15.00;;;;;20.68;36.32;99797.34;4975284;28;45860;-59
2022/03/30 04:04:17;;;;;;;;;14.25;14.25;;;;;20.66;36.46;99794.00;4975457;28;45553;-58
2022/03/30 04:06:43;;;;;;;;;14.00;14.00;;;;;20.68;36.65;99788.63;4973949;28;46086;-58
2022/03/30 04:09:08;;;;;;;;;14.25;9.25;;;;;20.68;36.37;99794.72;4975047;28;45470;-58
2022/03/30 04:11:34;;;;;;;;;16.00;12.50;;;;;20.68;36.37;99793.88;4975459;28;45244;-59
2022/03/30 04:13:59;;;;;;;;;15.25;13.50;;;;;20.68;36.65;99796.53;4975296;28;45636;-58
2022/03/30 04:16:24;;;;;;;;;13.50;13.50;;;;;20.67;36.18;99795.66;4975003;28;45366;-60
2022/03/30 04:18:50;;;;;;;;;13.75;12.25;;;;;20.67;36.25;99793.03;4975075;28;45424;-59
2022/03/30 04:21:15;;;;;;;;;14.50;13.75;;;;;20.67;36.84;99793.03;4975068;28;45383;-59
2022/03/30 04:23:41;;;;;;;;;13.25;12.00;;;;;20.67;36.77;99787.75;4973959;28;45572;-59
2022/03/30 04:26:09;;;;;;;;;14.50;13.75;;;;;20.67;36.12;99785.13;4974239;28;46097;-59
2022/03/30 04:28:40;;;;;;;;;15.25;15.25;;;;;20.68;36.35;99794.72;4973339;28;45790;-59
2022/03/30 04:31:07;;;;;;;;;15.75;13.00;;;;;20.66;36.31;99783.47;4975189;28;45390;-58
2022/03/30 04:33:32;;;;;;;;;15.75;14.75;;;;;20.66;36.38;99783.47;4975137;28;45366;-59
2022/03/30 04:35:58;;;;;;;;;17.25;17.25;;;;;20.67;36.83;99792.19;4973455;28;46888;-58
2022/03/30 04:38:23;;;;;;;;;14.75;14.75;;;;;20.67;36.79;99779.03;4974594;28;45432;-57
2022/03/30 04:40:48;;;;;;;;;13.75;13.50;;;;;20.67;36.84;99779.88;4973507;28;45409;-59
2022/03/30 04:43:14;;;;;;;;;16.00;15.50;;;;;20.66;36.39;99772.94;4974999;28;45456;-59
2022/03/30 04:45:39;;;;;;;;;16.00;13.75;;;;;20.67;36.84;99768.50;4974921;28;46476;-59
2022/03/30 04:48:04;;;;;;;;;17.25;13.75;;;;;20.67;36.78;99768.50;4974880;28;45366;-58
2022/03/30 04:50:30;;;;;;;;;16.25;15.00;;;;;20.67;36.81;99764.06;4973457;28;45490;-59
2022/03/30 04:52:56;;;;;;;;;16.50;14.25;;;;;20.67;36.77;99765.88;4974768;28;45318;-59
2022/03/30 04:55:22;;;;;;;;;15.25;13.25;;;;;20.65;36.57;99766.00;4974549;28;47173;-60
2022/03/30 04:57:47;;;;;;;;;24.00;20.00;;;;;20.67;36.65;99763.25;4974361;28;45254;-58
2022/03/30 05:00:13;;;;;;;;;25.75;22.25;;;;;20.65;37.13;99760.72;4974695;28;45234;-58
2022/03/30 05:02:40;;;;;;;;;26.25;23.50;;;;;20.65;36.91;99758.09;4973725;28;45490;-58
2022/03/30 05:05:08;;;;;;;;;30.75;25.75;;;;;20.64;36.59;99755.56;4974392;28;46560;-58
2022/03/30 05:07:34;;;;;;;;;28.00;24.25;;;;;20.62;36.61;99754.81;4974194;28;45805;-59
2022/03/30 05:09:59;;;;;;;;;32.25;29.00;;;;;20.63;37.07;99753.88;4974415;28;45335;-58
2022/03/30 05:12:25;;;;;;;;;30.75;23.25;;;;;20.61;37.29;99755.81;4974432;28;45510;-58
2022/03/30 05:14:51;;;;;;;;;26.00;25.00;;;;;20.59;36.95;99753.25;4974209;28;45430;-58
2022/03/30 05:17:17;;;;;;;;;35.50;28.75;;;;;20.58;37.47;99746.31;4974007;28;45485;-59
2022/03/30 05:19:44;;;;;;;;;30.50;29.75;;;;;20.57;36.95;99752.53;4974345;28;45308;-59
2022/03/30 05:22:10;;;;;;;;;29.50;26.00;;;;;20.55;37.47;99746.56;4974686;28;45204;-59
2022/03/30 05:24:36;;;;;;;;;30.75;27.50;;;;;20.55;37.48;99757.91;4972804;28;45323;-59
2022/03/30 05:27:01;;;;;;;;;36.50;31.75;;;;;20.52;37.46;99752.88;4974137;28;45368;-59
2022/03/30 05:29:27;;;;;;;;;36.25;33.00;;;;;20.49;37.13;99747.00;4974014;28;45347;-57
2022/03/30 05:31:52;;;;;;;;;37.75;32.75;;;;;20.47;37.21;99751.50;4974158;28;45508;-58
2022/03/30 05:34:18;;;;;;;;;35.75;31.50;;;;;20.48;37.85;99759.31;4973997;28;45325;-58
2022/03/30 05:36:43;;;;;;;;;35.75;32.00;;;;;20.49;37.66;99754.88;4973440;28;47757;-58
2022/03/30 05:39:08;;;;;;;;;32.75;30.75;;;;;20.48;37.30;99755.84;4973650;28;45400;-59
2022/03/30 05:41:34;;;;;;;;;35.00;30.25;;;;;20.48;37.73;99755.84;4974061;28;45569;-58
2022/03/30 05:44:00;;;;;;;;;31.25;29.50;;;;;20.48;37.44;99758.47;4973618;28;46633;-58
2022/03/30 05:46:26;;;;;;;;;32.75;31.25;;;;;20.49;37.78;99754.88;4972413;28;45957;-59
2022/03/30 05:48:51;;;;;;;;;40.25;34.00;;;;;20.49;37.60;99760.16;4973719;28;45458;-59
2022/03/30 05:51:17;;;;;;;;;36.50;32.75;;;;;20.47;37.74;99751.50;4974109;28;46096;-58
2022/03/30 05:53:43;;;;;;;;;43.00;32.25;;;;;20.47;37.99;99762.03;4973745;28;45441;-58
2022/03/30 05:56:08;;;;;;;;;36.50;32.50;;;;;20.46;37.93;99763.84;4973863;28;45378;-57
2022/03/30 05:58:34;;;;;;;;;38.25;32.25;;;;;20.47;37.53;99757.63;4973729;28;45314;-57
2022/03/30 06:00:59;;;;;;;;;35.75;31.50;;;;;20.47;37.80;99755.00;4973959;28;45200;-57
2022/03/30 06:03:25;;;;;;;;;35.50;31.25;;;;;20.47;37.85;99756.78;4973477;28;45610;-57
2022/03/30 06:05:51;;;;;;;;;38.75;31.50;;;;;20.47;37.92;99767.31;4973524;28;45240;-58
2022/03/30 06:08:17;;;;;;;;;43.25;33.75;;;;;20.46;38.05;99768.25;4973457;28;45259;-58
2022/03/30 06:10:42;;;;;;;;;33.00;30.75;;;;;20.46;38.08;99766.47;4989144;28;45372;-58
2022/03/30 06:13:08;;;;;;;;;34.00;31.50;;;;;20.44;37.82;99765.75;4974195;28;45442;-58
2022/03/30 06:15:34;;;;;;;;;36.75;33.25;;;;;20.46;37.91;99770.88;4973329;28;45390;-59
2022/03/30 06:18:00;;;;;;;;;33.25;28.25;;;;;20.45;38.31;99772.69;4972001;28;45435;-59
2022/03/30 06:20:26;;;;;;;;;38.25;32.75;;;;;20.45;37.88;99771.88;4973332;28;45378;-58
2022/03/30 06:22:52;;;;;;;;;36.25;32.50;;;;;20.45;38.02;99769.25;4973091;28;46060;-57
2022/03/30 06:25:20;;;;;;;;;38.50;33.00;;;;;20.46;37.78;99773.53;4972962;28;45330;-59
2022/03/30 06:27:46;;;;;;;;;39.25;33.25;;;;;20.45;38.19;99770.06;4973188;28;45408;-57
2022/03/30 06:30:12;;;;;;;;;36.00;30.75;;;;;20.44;38.00;99771.00;4973815;28;45454;-58
2022/03/30 06:32:37;;;;;;;;;36.25;31.75;;;;;20.44;38.72;99770.19;4972932;28;46446;-58
2022/03/30 06:35:04;;;;;;;;;35.00;32.25;;;;;20.44;38.07;99775.44;4972978;28;45336;-58
2022/03/30 06:37:30;;;;;;;;;33.25;29.25;;;;;20.43;38.28;99768.50;4971872;28;45372;-59
2022/03/30 06:39:56;;;;;;;;;39.25;31.25;;;;;20.43;37.95;99779.03;4973239;28;45343;-57
2022/03/30 06:42:21;;;;;;;;;42.25;34.25;;;;;20.43;38.76;99771.97;4973014;28;45416;-58
2022/03/30 06:44:46;;;;;;;;;37.25;32.25;;;;;20.44;38.29;99770.19;4972825;28;45352;-58
2022/03/30 06:47:12;;;;;;;;;41.50;32.25;;;;;20.46;38.64;99776.16;4973291;28;45464;-60
2022/03/30 06:49:38;;;;;;;;;46.25;35.50;;;;;20.47;38.48;99776.06;4973194;28;45236;-57
2022/03/30 06:52:08;;;;;;;;;44.00;33.50;;;;;20.49;38.85;99787.31;4974542;28;47362;-58
2022/03/30 06:54:35;;;;;;;;;40.00;34.75;;;;;20.51;38.59;99779.31;4974808;28;45989;-59
2022/03/30 06:57:02;;;;;;;;;48.50;34.00;;;;;20.50;38.99;99778.47;4976102;28;45295;-58
2022/03/30 06:59:27;;;;;;;;;43.25;35.50;;;;;20.48;38.83;99779.53;4976058;28;45446;-59
2022/03/30 07:01:55;;;;;;;;;45.00;37.50;;;;;20.46;38.52;99777.00;4975760;28;45603;-59
2022/03/30 07:04:21;;;;;;;;;35.50;32.75;;;;;20.46;39.29;99781.41;4975837;28;45363;-58
2022/03/30 07:12:14;;;;;;;;;45.25;35.00;;;;;20.42;38.83;99780.81;4975768;28;45720;-59
2022/03/30 07:14:39;;;;;;;;;42.75;34.50;;;;;20.42;39.07;99788.69;4974267;28;45281;-58
2022/03/30 07:17:05;;;;;;;;;36.25;33.25;;;;;20.42;38.96;99785.25;4975756;28;45316;-58
2022/03/30 07:19:30;;;;;;;;;40.00;32.50;;;;;20.41;38.90;99786.19;4976012;28;45360;-59
2022/03/30 07:21:56;;;;;;;;;41.50;34.25;;;;;20.38;39.16;99790.72;4975340;28;45361;-58
2022/03/30 07:24:21;;;;;;;;;41.00;34.75;;;;;20.38;39.24;99780.19;4975495;28;45400;-58
2022/03/30 07:26:46;;;;;;;;;47.00;35.25;;;;;20.37;39.39;99783.75;4975835;28;45805;-59
2022/03/30 07:29:12;;;;;;;;;46.00;35.50;;;;;20.35;39.18;99785.66;4975688;28;45533;-58
2022/03/30 07:31:37;;;;;;;;;37.75;34.75;;;;;20.35;39.13;99774.31;4975300;28;45489;-58
2022/03/30 07:34:04;;;;;;;;;41.75;34.25;;;;;20.34;39.59;99778.72;4975190;28;45373;-58
2022/03/30 07:36:30;;;;;;;;;45.50;36.25;;;;;20.34;39.51;99775.25;4975429;28;45341;-57
2022/03/30 07:38:55;;;;;;;;;46.75;36.50;;;;;20.32;39.45;99775.38;4975519;28;45448;-58
2022/03/30 07:41:21;;;;;;;;;40.25;34.25;;;;;20.32;39.73;99769.25;4975076;28;45480;-59
2022/03/30 07:43:47;;;;;;;;;42.75;34.50;;;;;20.31;39.33;99783.34;4975344;28;45423;-58
2022/03/30 07:46:13;;;;;;;;;37.75;33.75;;;;;20.30;39.19;99777.28;4972989;28;45397;-59
2022/03/30 07:48:39;;;;;;;;;42.00;33.25;;;;;20.30;39.89;99777.28;4975407;28;45255;-58
2022/03/30 07:51:06;;;;;;;;;43.00;37.00;;;;;20.28;39.79;99768.63;4974926;28;45409;-58
2022/03/30 07:53:31;;;;;;;;;33.50;30.00;;;;;20.30;39.56;99781.69;4974960;28;45373;-61
2022/03/30 07:55:57;;;;;;;;;46.50;36.50;;;;;20.29;39.48;99780.00;4975187;28;45323;-58
2022/03/30 07:58:23;;;;;;;;;43.75;35.25;;;;;20.29;39.34;99783.47;4975168;28;45630;-57
2022/03/30 08:00:49;;;;;;;;;40.75;34.00;;;;;20.27;39.89;99777.47;4974995;28;45393;-59
2022/03/30 08:03:14;;;;;;;;;40.75;33.50;;;;;20.27;39.28;99782.75;4975068;28;45346;-59
2022/03/30 08:05:39;;;;;;;;;42.00;34.67;;;;;20.27;39.48;99781.91;4975102;28;45437;-58
2022/03/30 08:08:08;;;;;;;;;42.00;34.50;;;;;20.26;39.59;99783.69;4975007;28;45323;-59
2022/03/30 08:10:35;;;;;;;;;44.75;36.00;;;;;20.24;39.84;99783.81;4974717;28;46208;-60
2022/03/30 08:13:01;;;;;;;;;41.25;34.50;;;;;20.23;39.94;99786.53;4974743;28;45389;-59
2022/03/30 08:15:27;;;;;;;;;40.75;33.75;;;;;20.23;39.26;99781.25;4974929;28;45375;-59
2022/03/30 08:17:54;;;;;;;;;19.75;17.75;;;;;20.23;39.72;99786.53;4974930;28;45580;-59
2022/03/30 08:23:04;;;;;;;;;33.75;30.25;;;;;20.21;40.13;99791.09;4973919;28;45934;-58
2022/03/30 08:25:30;;;;;;;;;43.00;37.75;;;;;20.20;39.65;99786.75;4974859;28;45296;-59
2022/03/30 08:27:55;;;;;;;;;42.25;34.25;;;;;20.19;39.74;99785.09;4973685;28;45396;-58
2022/03/30 08:30:21;;;;;;;;;45.50;34.00;;;;;20.17;40.06;99790.47;4974508;28;46199;-59
2022/03/30 08:32:46;;;;;;;;;42.25;34.25;;;;;20.18;40.00;99784.22;4975075;28;45454;-58
2022/03/30 08:35:12;;;;;;;;;41.25;36.25;;;;;20.17;39.93;99784.34;4974759;28;45315;-59
2022/03/30 08:37:39;;;;;;;;;40.75;34.00;;;;;20.16;40.43;99780.88;4974842;28;45651;-58
2022/03/30 08:40:06;;;;;;;;;41.00;34.50;;;;;20.15;40.56;99768.69;4974430;28;46102;-59
2022/03/30 08:42:32;;;;;;;;;45.25;34.00;;;;;20.14;40.24;99772.25;4974438;28;45337;-58
2022/03/30 08:44:59;;;;;;;;;38.00;33.75;;;;;20.13;40.62;99777.59;4974707;28;45469;-59
2022/03/30 08:47:25;;;;;;;;;43.75;33.00;;;;;20.13;40.64;99774.97;4974763;28;45519;-57
2022/03/30 08:49:51;;;;;;;;;41.00;34.75;;;;;20.12;40.54;99783.84;4974582;28;45363;-60
2022/03/30 08:52:17;;;;;;;;;43.75;35.00;;;;;20.12;40.19;99783.84;4974771;28;45417;-58
2022/03/30 08:54:44;;;;;;;;;41.50;33.50;;;;;20.12;40.62;99783.84;4974533;28;45374;-61
2022/03/30 08:57:11;;;;;;;;;41.25;33.75;;;;;20.10;40.60;99781.31;4974754;28;45510;-59
2022/03/30 08:59:36;;;;;;;;;38.50;32.25;;;;;20.10;40.33;99783.09;4974361;28;45229;-57
2022/03/30 09:02:02;;;;;;;;;37.50;31.75;;;;;20.11;40.38;99782.16;4974312;28;45256;-59
2022/03/30 09:04:27;;;;;;;;;38.25;32.75;;;;;20.10;40.78;99785.72;4974314;28;45445;-58
2022/03/30 09:06:58;;;;;;;;;39.50;34.25;;;;;20.08;40.67;99784.06;4974387;28;45433;-59
2022/03/30 09:09:35;;;;;;;;;45.75;34.50;;;;;20.10;40.48;99785.72;4973893;28;45257;-56
2022/03/30 09:12:07;;;;;;;;;41.75;33.25;;;;;20.09;40.72;99782.25;4973789;28;45462;-59
2022/03/30 09:14:34;;;;;;;;;39.00;33.50;;;;;20.09;40.67;99782.25;4973842;28;45249;-57
2022/03/30 09:17:04;;;;;;;;;37.25;33.00;;;;;20.08;40.71;99778.78;4974097;28;45384;-58
2022/03/30 09:19:36;;;;;;;;;39.00;31.00;;;;;20.07;40.78;99787.63;4973979;28;46428;-59
2022/03/30 09:22:03;;;;;;;;;40.25;36.00;;;;;20.08;40.41;99788.44;4973936;28;45461;-57
2022/03/30 09:24:32;;;;;;;;;41.25;35.25;;;;;20.07;40.40;99787.63;4974186;28;45430;-58
2022/03/30 09:26:59;;;;;;;;;45.00;36.00;;;;;20.08;40.59;99786.69;4974271;28;45339;-59
2022/03/30 09:29:27;;;;;;;;;40.00;34.25;;;;;20.07;41.09;99781.50;4973615;28;46250;-59
2022/03/30 09:31:53;;;;;;;;;41.25;36.75;;;;;20.06;40.95;99780.69;4974088;28;45435;-57
2022/03/30 09:34:20;;;;;;;;;47.50;36.00;;;;;20.06;40.45;99778.06;4973131;28;45340;-59
2022/03/30 09:36:49;;;;;;;;;37.75;35.00;;;;;20.08;40.94;99784.06;4975483;28;45464;-58
2022/03/30 09:39:35;;;;;;;;;44.00;34.75;;;;;20.08;41.06;99776.16;4973690;28;46347;-59
2022/03/30 09:42:03;;;;;;;;;41.00;36.00;;;;;20.10;40.87;99780.47;4972523;28;45383;-59
2022/03/30 09:44:30;;;;;;;;;45.00;37.00;;;;;20.10;40.87;99777.84;4973944;28;45909;-58
2022/03/30 09:47:05;;;;;;;;;44.25;34.50;;;;;20.11;40.54;99779.53;4973782;28;45358;-59
2022/03/30 09:49:31;;;;;;;;;45.50;36.50;;;;;20.10;40.81;99776.03;4973335;28;47306;-59
2022/03/30 09:51:57;;;;;;;;;40.00;34.75;;;;;20.11;41.14;99776.91;4973534;28;45421;-58
2022/03/30 09:54:41;;;;;;;;;37.50;31.50;;;;;20.10;40.88;99775.22;4973888;28;45665;-59
2022/03/30 09:57:14;;;;;;;;;38.50;34.00;;;;;20.10;40.87;99783.94;4973646;28;45573;-60
2022/03/30 10:00:01;;;;;;;;;43.00;33.75;;;;;20.11;40.80;99782.16;4973394;28;46199;-60
2022/03/30 10:02:30;;;;;;;;;38.50;33.50;;;;;20.11;41.07;99782.16;4973326;28;45465;-57
2022/03/30 10:04:56;;;;;;;;;37.25;32.75;;;;;20.10;41.32;99775.22;4972207;28;45218;-55
2022/03/30 10:07:21;;;;;;;;;40.75;36.00;;;;;20.11;41.17;99767.19;4972386;28;45190;-60
2022/03/30 10:09:48;;;;;;;;;42.75;33.50;;;;;20.12;40.80;99762.78;4973161;28;45410;-57
2022/03/30 10:12:17;;;;;;;;;27.50;23.50;;;;;20.14;40.61;99767.00;4973135;28;45894;-60
2022/03/30 10:14:46;;;;;;;;;39.00;32.25;;;;;20.14;40.74;99755.63;4974819;28;45353;-57
2022/03/30 10:17:14;;;;;;;;;36.25;32.25;;;;;20.18;40.50;99768.44;4973358;28;45367;-55
2022/03/30 10:19:44;;;;;;;;;33.25;28.25;;;;;20.20;40.71;99770.97;4988008;28;46150;-57
2022/03/30 10:22:12;;;;;;;;;33.25;28.50;;;;;20.21;40.64;99757.72;4973049;28;45307;-58
2022/03/30 10:25:25;;;;;;;;;30.75;26.00;;;;;20.25;40.65;99758.31;4973324;28;45380;-58
2022/03/30 10:27:53;;;;;;;;;29.25;24.75;;;;;20.26;40.32;99760.00;4979938;28;45683;-59
2022/03/30 10:30:30;;;;;;;;;27.50;25.00;;;;;20.28;40.60;99758.13;4976090;28;45418;-59
2022/03/30 10:32:59;;;;;;;;;28.00;26.00;;;;;20.31;39.96;99757.91;4976259;28;45271;-56
2022/03/30 10:35:50;;;;;;;;;30.50;27.25;;;;;20.34;40.13;99759.47;4976401;28;45403;-58
2022/03/30 10:38:16;;;;;;;;;28.75;26.75;;;;;20.36;40.74;99755.75;4976312;28;45346;-57
2022/03/30 10:40:43;;;;;;;;;32.75;29.00;;;;;20.38;40.79;99753.88;4975645;28;45467;-57
2022/03/30 10:43:09;;;;;;;;;30.50;29.50;;;;;20.41;40.45;99750.16;4974697;28;45831;-58
2022/03/30 10:45:56;;;;;;;;;30.25;26.25;;;;;20.42;40.11;99745.75;4975991;28;45276;-57
2022/03/30 10:48:30;;;;;;;;;26.00;20.50;;;;;20.44;40.40;99749.13;4976457;28;45448;-60
2022/03/30 10:51:14;;;;;;;;;30.25;25.50;;;;;20.44;40.48;99743.88;4975852;28;46387;-56
2022/03/30 10:53:42;;;;;;;;;26.75;25.25;;;;;20.44;39.97;99735.97;4975844;28;45867;-58
2022/03/30 10:56:08;;;;;;;;;26.50;21.25;;;;;20.45;39.82;99737.66;4975697;28;45409;-57
2022/03/30 10:58:35;;;;;;;;;28.50;23.25;;;;;20.45;40.20;99725.31;4976050;28;45330;-57
2022/03/30 11:01:22;;;;;;;;;31.00;25.25;;;;;20.45;39.87;99725.31;4975684;28;47273;-56
2022/03/30 11:03:59;;;;;;;;;26.00;21.75;;;;;20.46;40.13;99726.16;4975645;28;45813;-57
2022/03/30 11:06:26;;;;;;;;;19.75;19.75;;;;;20.47;40.52;99719.94;4974837;28;45261;-59
2022/03/30 11:08:51;;;;;;;;;24.00;19.50;;;;;20.48;39.93;99721.63;4975933;28;45581;-58
2022/03/30 11:11:27;;;;;;;;;21.75;20.50;;;;;20.49;40.13;99715.41;4975544;28;46096;-60
2022/03/30 11:14:21;;;;;;;;;24.50;20.50;;;;;20.49;39.82;99713.63;4975665;28;45954;-57
2022/03/30 11:16:48;;;;;;;;;27.50;24.25;;;;;20.45;40.26;99712.16;4975557;28;45454;-58
2022/03/30 11:19:14;;;;;;;;;21.75;19.50;;;;;20.49;39.92;99715.41;4974486;28;45313;-56
2022/03/30 11:21:39;;;;;;;;;22.25;22.25;;;;;20.49;39.94;99708.38;4975306;28;46640;-59
2022/03/30 11:24:07;;;;;;;;;26.00;22.25;;;;;20.50;40.17;99711.81;4975567;28;45440;-58
2022/03/30 11:26:48;;;;;;;;;27.75;21.50;;;;;20.53;40.15;99708.97;4975780;28;45231;-59